Las Vegas, Nevada (DRI) Weather observations

Data are for observation ending at time listed.
 Day   Time    Ave.   Ave.  Ave.  Vector   Max.   Stn.    Total    Solar   Ave.  
  of    of     Air    Rel.  Wind   Wind    Wind   Baro.  Precip.   Rad.    Soil  
Year   Day     Temp.  Hum.  Speed  Dir.    Gust   Pres.                    Temp. 
2016   (PST)    F      %     mph   deg.    mph     mb.     in.     W/m2     F   
------------------------------------------------------------------------------
 145   11:30   75.7    21   10.2   184     18.2   938.5    0.00    1132    77.3
 145   11:40   75.6    21   10.2   188     19.9   938.6    0.00    1149    77.4
 145   11:50   75.8    22    9.4   185     22.9   938.6    0.00     953    77.5
 145   12:00   75.8    21    7.5   196     14.2   938.6    0.00    1035    77.6
 145   12:10   76.8    20    7.6   188     17.3   938.6    0.00    1145    77.7
 145   12:20   76.4    20    7.8   198     16.1   938.6    0.00    1113    77.8
 145   12:30   76.9    20    8.3   204     19.0   938.5    0.00    1151    78.0
 145   12:40   77.3    20    8.3   195     16.4   938.5    0.00    1136    78.1
 145   12:50   77.5    20    9.0   188     18.3   938.4    0.00    1118    78.3
 145   13:00   77.8    19    9.0   194     17.5   938.4    0.00     993    78.4
 145   13:10   77.5    20    9.3   190     16.9   938.5    0.00    1081    78.6
 145   13:20   78.2    19    7.6   195     16.7   938.5    0.00    1076    78.8
 145   13:30   78.1    19    8.7   188     19.4   938.4    0.00    1056    78.9
 145   13:40   78.3    19    9.3   186     21.0   938.4    0.00    1021    79.1
 145   13:50   78.2    18    9.3   180     19.4   938.3    0.00    1004    79.2
 145   14:00   78.7    18    7.9   190     16.5   938.3    0.00     987    79.4
 145   14:10   78.7    18    8.9   183     20.0   938.3    0.00     957    79.6
 145   14:20   79.6    17    5.4   208     11.7   938.3    0.00     923    79.8
 145   14:30   79.2    17    7.9   198     20.3   938.3    0.00     892    80.0
 145   14:40   79.6    17    7.0   196     17.0   938.2    0.00     859    80.2
 145   14:50   79.1    16    9.9   184     21.4   938.2    0.00     828    80.4
 145   15:00   79.1    15    7.4   185     15.4   938.1    0.00     794    80.6
 145   15:10   79.2    15    7.7   194     14.0   938.1    0.00     758    80.8
 145   15:20   79.3    15    7.0   198     18.8   938.2    0.00     724    81.1
 145   15:30   79.2    15    6.6   192     13.8   938.2    0.00     688    81.2
 145   15:40   79.2    15    8.4   185     15.8   938.1    0.00     653    81.4
 145   15:50   79.5    15    6.4   197     15.7   938.1    0.00     614    81.6
 145   16:00   79.1    15    8.2   194     17.5   938.1    0.00     398    81.8
 145   16:10   78.9    15    6.4   206     11.3   938.3    0.00     545    81.9
 145   16:20   78.8    15    7.3   193     15.3   938.2    0.00     504    82.1
 145   16:30   79.6    15    6.4   190     16.8   938.2    0.00     468    82.3
 145   16:40   79.2    15    7.9   190     14.0   938.2    0.00     428    82.4
 145   16:50   78.8    16    6.4   203     13.4   938.3    0.00     388    82.5
 145   17:00   79.3    15    6.2   194     11.5   938.3    0.00     347    82.7
 145   17:10   78.6    15    7.2   197     15.6   938.3    0.00     307    82.8
 145   17:20   78.5    15    5.7   193     13.8   938.3    0.00     268    82.9
 145   17:30   78.5    15    7.2   183     21.9   938.3    0.00     232    83.0
 145   17:40   78.1    15    7.8   191     16.7   938.3    0.00     196    83.1
 145   17:50   77.9    16    6.2   195     12.4   938.4    0.00     162    83.2
 145   18:00   77.4    16    6.4   201     14.4   938.4    0.00     129    83.3
 145   18:10   77.0    16    5.5   198     10.4   938.5    0.00      52    83.4
 145   18:20   77.1    16    5.3   193     17.3   938.7    0.00      44    83.4
 145   18:30   76.4    16    7.1   186     14.6   938.7    0.00      22    83.5
 145   18:40   76.0    17    7.5   191     16.5   938.8    0.00      13    83.5
 145   18:50   75.7    17    7.7   188     16.5   938.9    0.00       6    83.5
 145   19:00   75.5    17    7.9   186     15.6   939.0    0.00       4    83.5
 145   19:10   75.4    17    7.1   187     14.5   939.1    0.00       1    83.5
 145   19:20   75.1    18    7.3   192     15.6   939.2    0.00       0    83.5
 145   19:30   74.9    18    6.8   182     12.6   939.3    0.00       0    83.5
 145   19:40   74.6    18    5.6   189     10.2   939.4    0.00       0    83.4
 145   19:50   74.4    19    5.6   193     11.4   939.6    0.00       0    83.4
 145   20:00   74.2    19    4.3   208      7.9   939.8    0.00       0    83.4
 145   20:10   74.0    19    5.7   204     11.0   939.9    0.00       0    83.3
 145   20:20   73.6    19    5.6   200     12.9   940.0    0.00       0    83.2
 145   20:30   73.3    19    5.8   198     12.6   940.1    0.00       0    83.2
 145   20:40   73.0    20    4.6   211     11.0   940.2    0.00       0    83.1
 145   20:50   72.8    20    5.6   202     12.2   940.3    0.00       0    83.1
 145   21:00   72.6    20    4.3   205      8.8   940.3    0.00       0    83.0
 145   21:10   72.8    20    2.9   250      8.8   940.5    0.00       0    82.9
 145   21:20   72.9    20    3.2   253      8.6   940.5    0.00       0    82.8
 145   21:30   72.6    21    2.1   231      7.7   940.5    0.00       0    82.8
 145   21:40   72.2    22    3.3   211      7.7   940.6    0.00       0    82.7
 145   21:50   71.9    22    3.4   211      8.5   940.6    0.00       0    82.6
 145   22:00   71.5    23    3.6   185      9.3   940.7    0.00       0    82.5
 145   22:10   71.0    23    4.5   190     10.2   940.8    0.00       0    82.5
 145   22:20   70.7    24    2.9   194      5.4   940.8    0.00       0    82.4
 145   22:30   70.6    24    1.9   191      5.0   940.8    0.00       0    82.3
 145   22:40   70.5    24    1.7   190      3.9   940.9    0.00       0    82.2
 145   22:50   70.3    24    1.8   178      3.9   941.0    0.00       0    82.1
 145   23:00   70.0    25    2.6   184      5.4   941.1    0.00       0    82.0
 145   23:10   69.8    25    2.8   187      6.4   941.1    0.00       0    81.9
 145   23:20   69.4    26    3.7   184      7.7   941.1    0.00       0    81.9
 145   23:30   68.9    26    4.3   195      7.6   941.1    0.00       0    81.8
 145   23:40   68.8    26    5.6   201      9.3   940.9    0.00       0    81.7
 145   23:50   68.8    26    4.4   202      8.0   941.0    0.00       0    81.6
 146    0:00   69.0    26    2.7   183      6.2   941.2    0.00       0    81.5
 146    0:10   68.4    27    3.2   174      6.8   941.3    0.00       0    81.4
 146    0:20   67.9    27    4.5   177      7.5   941.3    0.00       0    81.3
 146    0:30   67.8    28    4.1   177      8.8   941.2    0.00       0    81.2
 146    0:40   67.6    28    4.9   178      8.3   941.2    0.00       0    81.1
 146    0:50   67.2    28    5.0   174      8.8   941.2    0.00       0    81.0
 146    1:00   67.1    27    5.1   177      9.7   941.2    0.00       0    80.9
 146    1:10   66.8    28    4.1   179      7.2   941.2    0.00       0    80.8
 146    1:20   66.3    29    5.6   179     10.9   941.1    0.00       0    80.7
 146    1:30   66.0    30    4.3   180      8.2   941.1    0.00       0    80.7
 146    1:40   65.7    31    4.8   180      8.8   941.2    0.00       0    80.6
 146    1:50   65.3    32    5.4   180      9.1   941.2    0.00       0    80.5
 146    2:00   65.2    33    5.0   178      8.8   941.2    0.00       0    80.4
 146    2:10   65.0    34    4.7   182      9.5   941.2    0.00       0    80.2
 146    2:20   64.8    34    5.1   174     11.0   941.2    0.00       0    80.2
 146    2:30   64.7    34    4.4   176      8.3   941.2    0.00       0    80.1
 146    2:40   64.5    35    5.4   177      8.7   941.3    0.00       0    80.0
 146    2:50   64.3    35    5.3   176      9.5   941.2    0.00       0    79.9
 146    3:00   64.0    36    6.0   180     10.4   941.2    0.00       0    79.8
 146    3:10   63.9    36    3.5   190      7.5   941.3    0.00       0    79.7
 146    3:20   63.6    37    4.5   178      8.3   941.3    0.00       0    79.6
 146    3:30   63.3    38    3.8   182      6.9   941.4    0.00       0    79.5
 146    3:40   63.5    37    3.9   182      6.5   941.5    0.00       0    79.4
 146    3:50   63.9    35    3.7   193      7.7   941.5    0.00       0    79.3
 146    4:00   64.0    34    3.0   199      8.3   941.5    0.00       0    79.2
 146    4:10   64.0    34    1.8   228      5.2   941.5    0.00       0    79.1
 146    4:20   63.9    35    1.3   214      4.2   941.5    0.00       1    79.0
 146    4:30   63.6    35    1.6   192      3.5   941.6    0.00       4    79.0
 146    4:40   63.5    35    2.1   175      5.3   941.7    0.00       7    78.9
 146    4:50   63.5    35    0.1   189      0.9   941.9    0.00      13    78.8
 146    5:00   63.5    34    0.8   166      2.6   942.0    0.00      23    78.7
 146    5:10   64.1    33    2.1   171      4.6   942.0    0.00      33    78.6
 146    5:20   63.7    35    3.6   176      6.0   942.1    0.00      37    78.4
 146    5:30   63.9    35    2.7   174      5.6   942.3    0.00      32    78.3
 146    5:40   63.8    36    3.9   175      7.8   942.4    0.00      33    78.2
 146    5:50   63.8    37    3.7   178      7.5   942.6    0.00      37    78.1
 146    6:00   63.8    36    4.9   177      8.3   942.6    0.00      39    78.0
 146    6:10   64.3    35    3.5   176      7.7   942.6    0.00      39    78.0
 146    6:20   64.8    34    3.2   177      6.2   942.6    0.00      44    77.9
 146    6:30   65.2    34    3.4   173      7.7   942.7    0.00      46    77.8
 146    6:40   65.3    34    3.7   178      6.6   942.8    0.00      46    77.7
 146    6:50   65.5    34    2.4   182      5.1   942.9    0.00      48    77.6
 146    7:00   66.1    34    1.7   194      4.4   943.0    0.00      52    77.5
 146    7:10   66.7    34    0.5   171      3.4   943.0    0.00      62    77.5
 146    7:20   67.6    32    0.8    46      3.3   943.0    0.00      60    77.4
 146    7:30   67.9    31    1.0    46      3.7   943.0    0.00      97    77.4
 146    7:40   67.9    31    0.9   152      3.3   943.0    0.00     309    77.3
 146    7:50   68.9    30    1.7    52      4.5   943.1    0.00     320    77.2
 146    8:00   69.0    31    0.8   161      4.0   943.2    0.00     280    77.1
 146    8:10   70.0    30    1.3    47      4.7   943.2    0.00     220    77.1
 146    8:20   70.2    29    1.5   168      5.3   943.2    0.00     314    77.0
 146    8:30   71.1    28    0.7   106      2.9   943.2    0.00     362    77.0
 146    8:40   71.6    27    1.2   222      3.1   943.1    0.00     707    76.9
 146    8:50   71.8    27    1.9   193      5.6   943.0    0.00     850    76.8
 146    9:00   72.0    27    2.0   202      4.1   943.0    0.00     876    76.7
 146    9:10   72.8    26    2.1   186      6.5   943.1    0.00     902    76.7
 146    9:20   73.3    26    1.3   354      4.7   943.1    0.00     925    76.7
 146    9:30   74.3    26    1.6   182      6.1   943.0    0.00     947    76.7
 146    9:40   75.8    24    0.8    86      3.5   943.0    0.00     968    76.6
 146    9:50   76.6    24    1.6   171      7.8   942.9    0.00     989    76.6
 146   10:00   76.4    24    2.1   184      6.3   942.8    0.00    1010    76.6
 146   10:10   75.8    24    2.1    81      5.2   942.8    0.00    1030    76.5
 146   10:20   76.0    23    3.0    87      6.1   942.8    0.00    1047    76.5
 146   10:30   76.4    23    3.0   191      8.3   942.7    0.00    1057    76.5
 146   10:40   77.3    22    1.9    70      6.4   942.6    0.00    1087    76.5
 146   10:50   77.7    21    2.6    50      7.1   942.5    0.00    1088    76.5
 146   11:00   78.3    19    2.7   187      7.2   942.4    0.00    1105    76.5
 146   11:10   77.6    19    2.0   186      6.1   942.3    0.00    1126    76.6
 146   11:20   78.3    19    2.3   174      7.3   942.3    0.00    1139    76.7

Return to Las Vegas, Nevada graphs page.


Western Regional Climate Center,wrcc@dri.edu